Narsarsuaq

KL  EN  DA
ASIAQ
Weather Now GREENLAND SURVEY
Updated [WGT/WGST] Temperature [°C] Wind [m/s] Air pressure [hPa] Relative humidity [%] Precipitation [mm]
Present Wind chill Speed Max
21.01 19:00-12,3-20,65,4 ⇙7,0997530,0
21.01 18:00-12,2-19,44,1 ⇙6,5997490,0
21.01 17:00-10,8-16,32,9 ⇐4,0997480,0
21.01 16:00-10,6-16,63,3 ⇙4,0997540,0
21.01 15:00-9,4-12,51,5 ⇙2,3997620,0
21.01 14:00-8,3-11,81,8 ⇘2,9997560,0
21.01 13:00-7,70,00,6 ⇑1,4997680,0
21.01 12:00-7,8-11,21,8 ⇗2,0998700,0
21.01 11:00-8,20,01,2 ⇗1,7998690,0
21.01 10:00-7,9-11,72,0 ⇗2,8998730,0
21.01 09:00-7,7-10,71,6 ⇗2,2998720,0
21.01 08:00-7,1-10,61,9 ⇑3,2998710,0
21.01 07:00-6,8-12,84,2 ⇑5,8997670,0
21.01 06:00-6,3-12,24,2 ⇗5,6997760,0
21.01 05:00-6,1-11,33,5 ⇗4,6997730,0
21.01 04:00-5,6-12,05,1 ⇗6,299778-0,1
21.01 03:00-5,3-11,95,6 ⇗6,5997740,0
21.01 02:00-5,1-12,87,7 ⇗8,9997720,0
21.01 01:00-4,7-13,310,0 ⇗11,5996730,0
21.01 00:00-4,4-13,110,6 ⇗12,699577-0,1
20.01 23:00-4,4-13,210,9 ⇗13,499482-0,1
20.01 22:00-4,1-12,29,3 ⇗11,5993790,0
20.01 21:00-3,8-12,110,1 ⇗11,8992820,0
20.01 20:00-3,3-10,78,3 ⇗10,8992880,1
20.01 19:00-3,5-10,77,6 ⇗9,299188-0,1
Position: (61.166667,-45.416667)

[Back]